Terminal Aerodrome Forecast
Issued by NWS Midland/Odessa, TX

Home | Current Version | Previous Version | Text Only | Print | Product List | Glossary On
Versions: 1 2 3 4 5 6 7 8 9 10 11 12 13 14 15 16 17 18 19 20 21 22 23
000
FTUS44 KMAF 212300 RRA
TAFMAF
TAF
KMAF 212343Z 2200/2224 24018G24KT P6SM SCT250
     FM220200 26010KT P6SM BKN250
     FM221500 30013KT P6SM SCT250
     FM221700 31013G20KT P6SM BKN200=

USA.gov is the U.S. government's official web portal to all federal, state and local government web resources and services.